sensor_id;sensor_type;location;lat;lon;timestamp;P1;durP1;ratioP1;P2;durP2;ratioP2
11386;SDS011;5748;53.102;8.456;2023-03-24T00:01:50;1.60;;;1.50;;
11386;SDS011;5748;53.102;8.456;2023-03-24T00:06:49;2.53;;;1.50;;
11386;SDS011;5748;53.102;8.456;2023-03-24T00:09:18;1.50;;;1.40;;
11386;SDS011;5748;53.102;8.456;2023-03-24T00:11:55;3.20;;;1.50;;
11386;SDS011;5748;53.102;8.456;2023-03-24T00:14:22;1.90;;;1.63;;
11386;SDS011;5748;53.102;8.456;2023-03-24T00:16:50;1.60;;;1.50;;
11386;SDS011;5748;53.102;8.456;2023-03-24T00:19:24;1.60;;;1.37;;
11386;SDS011;5748;53.102;8.456;2023-03-24T00:21:51;1.77;;;1.40;;
11386;SDS011;5748;53.102;8.456;2023-03-24T00:24:19;1.37;;;1.27;;
11386;SDS011;5748;53.102;8.456;2023-03-24T00:26:47;2.17;;;1.33;;
11386;SDS011;5748;53.102;8.456;2023-03-24T00:29:18;2.00;;;1.53;;
11386;SDS011;5748;53.102;8.456;2023-03-24T00:31:45;1.27;;;1.10;;
11386;SDS011;5748;53.102;8.456;2023-03-24T00:34:12;1.53;;;1.43;;
11386;SDS011;5748;53.102;8.456;2023-03-24T00:36:40;2.17;;;1.47;;
11386;SDS011;5748;53.102;8.456;2023-03-24T00:39:07;1.67;;;1.50;;
11386;SDS011;5748;53.102;8.456;2023-03-24T00:41:34;1.83;;;1.53;;
11386;SDS011;5748;53.102;8.456;2023-03-24T00:44:03;1.87;;;1.40;;
11386;SDS011;5748;53.102;8.456;2023-03-24T00:46:32;2.27;;;1.77;;
11386;SDS011;5748;53.102;8.456;2023-03-24T00:49:02;3.27;;;2.10;;
11386;SDS011;5748;53.102;8.456;2023-03-24T00:51:36;2.10;;;1.67;;
11386;SDS011;5748;53.102;8.456;2023-03-24T00:54:06;2.63;;;1.70;;
11386;SDS011;5748;53.102;8.456;2023-03-24T00:56:35;2.07;;;1.67;;
11386;SDS011;5748;53.102;8.456;2023-03-24T00:59:06;1.70;;;1.50;;
11386;SDS011;5748;53.102;8.456;2023-03-24T01:01:35;1.50;;;1.40;;
11386;SDS011;5748;53.102;8.456;2023-03-24T01:04:04;2.03;;;1.40;;
11386;SDS011;5748;53.102;8.456;2023-03-24T01:06:33;2.20;;;1.60;;
11386;SDS011;5748;53.102;8.456;2023-03-24T01:09:11;2.37;;;1.47;;
11386;SDS011;5748;53.102;8.456;2023-03-24T01:11:39;1.73;;;1.40;;
11386;SDS011;5748;53.102;8.456;2023-03-24T01:14:06;2.20;;;1.80;;
11386;SDS011;5748;53.102;8.456;2023-03-24T01:16:35;1.83;;;1.60;;
11386;SDS011;5748;53.102;8.456;2023-03-24T01:19:03;2.50;;;1.80;;
11386;SDS011;5748;53.102;8.456;2023-03-24T01:21:30;2.63;;;1.60;;
11386;SDS011;5748;53.102;8.456;2023-03-24T01:23:59;1.60;;;1.50;;
11386;SDS011;5748;53.102;8.456;2023-03-24T01:26:27;1.93;;;1.60;;
11386;SDS011;5748;53.102;8.456;2023-03-24T01:28:54;1.70;;;1.33;;
11386;SDS011;5748;53.102;8.456;2023-03-24T01:31:21;2.83;;;1.87;;
11386;SDS011;5748;53.102;8.456;2023-03-24T01:33:50;1.90;;;1.53;;
11386;SDS011;5748;53.102;8.456;2023-03-24T01:36:18;1.60;;;1.50;;
11386;SDS011;5748;53.102;8.456;2023-03-24T01:38:45;1.93;;;1.70;;
11386;SDS011;5748;53.102;8.456;2023-03-24T01:41:12;2.03;;;1.50;;
11386;SDS011;5748;53.102;8.456;2023-03-24T01:43:39;1.50;;;1.40;;
11386;SDS011;5748;53.102;8.456;2023-03-24T01:46:07;1.80;;;1.50;;
11386;SDS011;5748;53.102;8.456;2023-03-24T01:48:42;1.70;;;1.60;;
11386;SDS011;5748;53.102;8.456;2023-03-24T01:51:17;2.80;;;1.90;;
11386;SDS011;5748;53.102;8.456;2023-03-24T01:53:50;2.03;;;1.70;;
11386;SDS011;5748;53.102;8.456;2023-03-24T01:56:21;1.70;;;1.60;;
11386;SDS011;5748;53.102;8.456;2023-03-24T01:58:52;2.30;;;2.10;;
11386;SDS011;5748;53.102;8.456;2023-03-24T02:01:24;1.77;;;1.60;;
11386;SDS011;5748;53.102;8.456;2023-03-24T02:03:54;1.97;;;1.80;;
11386;SDS011;5748;53.102;8.456;2023-03-24T02:06:23;2.50;;;1.70;;
11386;SDS011;5748;53.102;8.456;2023-03-24T02:09:03;2.30;;;1.90;;
11386;SDS011;5748;53.102;8.456;2023-03-24T02:11:31;3.03;;;2.40;;
11386;SDS011;5748;53.102;8.456;2023-03-24T02:14:00;2.93;;;2.40;;
11386;SDS011;5748;53.102;8.456;2023-03-24T02:16:32;2.40;;;2.07;;
11386;SDS011;5748;53.102;8.456;2023-03-24T02:19:20;1.83;;;1.73;;
11386;SDS011;5748;53.102;8.456;2023-03-24T02:22:27;1.90;;;1.77;;
11386;SDS011;5748;53.102;8.456;2023-03-24T02:25:51;2.13;;;1.87;;
11386;SDS011;5748;53.102;8.456;2023-03-24T02:28:55;1.80;;;1.70;;
11386;SDS011;5748;53.102;8.456;2023-03-24T02:31:53;2.67;;;2.13;;
11386;SDS011;5748;53.102;8.456;2023-03-24T02:37:58;2.20;;;2.00;;
11386;SDS011;5748;53.102;8.456;2023-03-24T02:40:45;2.70;;;2.50;;
11386;SDS011;5748;53.102;8.456;2023-03-24T02:43:25;2.63;;;2.17;;
11386;SDS011;5748;53.102;8.456;2023-03-24T02:46:06;2.30;;;2.10;;
11386;SDS011;5748;53.102;8.456;2023-03-24T02:48:44;2.03;;;1.80;;
11386;SDS011;5748;53.102;8.456;2023-03-24T02:51:25;1.90;;;1.80;;
11386;SDS011;5748;53.102;8.456;2023-03-24T02:54:00;2.43;;;2.23;;
11386;SDS011;5748;53.102;8.456;2023-03-24T02:56:36;2.20;;;2.00;;
11386;SDS011;5748;53.102;8.456;2023-03-24T02:59:08;2.43;;;2.17;;
11386;SDS011;5748;53.102;8.456;2023-03-24T03:01:43;2.37;;;2.17;;
11386;SDS011;5748;53.102;8.456;2023-03-24T03:06:52;2.30;;;2.10;;
11386;SDS011;5748;53.102;8.456;2023-03-24T03:09:23;2.37;;;1.93;;
11386;SDS011;5748;53.102;8.456;2023-03-24T03:11:55;2.10;;;1.90;;
11386;SDS011;5748;53.102;8.456;2023-03-24T03:14:24;2.10;;;1.90;;
11386;SDS011;5748;53.102;8.456;2023-03-24T03:17:07;2.00;;;1.90;;
11386;SDS011;5748;53.102;8.456;2023-03-24T03:19:39;2.50;;;2.30;;
11386;SDS011;5748;53.102;8.456;2023-03-24T03:22:15;1.93;;;1.83;;
11386;SDS011;5748;53.102;8.456;2023-03-24T03:24:48;2.07;;;1.90;;
11386;SDS011;5748;53.102;8.456;2023-03-24T03:27:21;2.80;;;2.00;;
11386;SDS011;5748;53.102;8.456;2023-03-24T03:32:29;2.60;;;2.40;;
11386;SDS011;5748;53.102;8.456;2023-03-24T03:35:00;2.20;;;2.00;;
11386;SDS011;5748;53.102;8.456;2023-03-24T03:37:33;2.20;;;2.00;;
11386;SDS011;5748;53.102;8.456;2023-03-24T03:40:08;2.57;;;2.20;;
11386;SDS011;5748;53.102;8.456;2023-03-24T03:42:42;2.60;;;2.40;;
11386;SDS011;5748;53.102;8.456;2023-03-24T03:45:10;2.60;;;2.40;;
11386;SDS011;5748;53.102;8.456;2023-03-24T03:47:38;2.30;;;2.10;;
11386;SDS011;5748;53.102;8.456;2023-03-24T03:50:06;1.97;;;1.83;;
11386;SDS011;5748;53.102;8.456;2023-03-24T03:52:35;2.23;;;2.03;;
11386;SDS011;5748;53.102;8.456;2023-03-24T03:55:05;2.60;;;2.40;;
11386;SDS011;5748;53.102;8.456;2023-03-24T03:57:34;2.30;;;2.10;;
11386;SDS011;5748;53.102;8.456;2023-03-24T04:00:03;2.57;;;2.37;;
11386;SDS011;5748;53.102;8.456;2023-03-24T04:02:36;2.00;;;1.90;;
11386;SDS011;5748;53.102;8.456;2023-03-24T04:05:26;2.27;;;2.03;;
11386;SDS011;5748;53.102;8.456;2023-03-24T04:08:07;2.47;;;2.10;;
11386;SDS011;5748;53.102;8.456;2023-03-24T04:13:55;2.40;;;2.20;;
11386;SDS011;5748;53.102;8.456;2023-03-24T04:16:45;2.00;;;1.90;;
11386;SDS011;5748;53.102;8.456;2023-03-24T04:19:24;2.37;;;2.17;;
11386;SDS011;5748;53.102;8.456;2023-03-24T04:22:08;2.23;;;2.13;;
11386;SDS011;5748;53.102;8.456;2023-03-24T04:24:51;2.30;;;2.10;;
11386;SDS011;5748;53.102;8.456;2023-03-24T04:27:34;2.10;;;1.90;;
11386;SDS011;5748;53.102;8.456;2023-03-24T04:30:11;2.83;;;2.60;;
11386;SDS011;5748;53.102;8.456;2023-03-24T04:32:46;2.17;;;1.97;;
11386;SDS011;5748;53.102;8.456;2023-03-24T04:35:19;2.10;;;1.90;;
11386;SDS011;5748;53.102;8.456;2023-03-24T04:37:55;2.17;;;2.07;;
11386;SDS011;5748;53.102;8.456;2023-03-24T04:40:26;2.60;;;2.40;;
11386;SDS011;5748;53.102;8.456;2023-03-24T04:42:57;2.47;;;2.27;;
11386;SDS011;5748;53.102;8.456;2023-03-24T04:45:29;2.50;;;2.30;;
11386;SDS011;5748;53.102;8.456;2023-03-24T04:48:01;2.37;;;2.17;;
11386;SDS011;5748;53.102;8.456;2023-03-24T04:53:07;2.10;;;2.00;;
11386;SDS011;5748;53.102;8.456;2023-03-24T04:55:42;2.60;;;2.40;;
11386;SDS011;5748;53.102;8.456;2023-03-24T04:58:23;2.30;;;2.10;;
11386;SDS011;5748;53.102;8.456;2023-03-24T05:00:50;2.30;;;2.10;;
11386;SDS011;5748;53.102;8.456;2023-03-24T05:03:21;2.70;;;2.50;;
11386;SDS011;5748;53.102;8.456;2023-03-24T05:05:48;3.00;;;2.80;;
11386;SDS011;5748;53.102;8.456;2023-03-24T05:08:17;2.80;;;2.60;;
11386;SDS011;5748;53.102;8.456;2023-03-24T05:10:46;2.63;;;2.43;;
11386;SDS011;5748;53.102;8.456;2023-03-24T05:13:23;3.13;;;2.83;;
11386;SDS011;5748;53.102;8.456;2023-03-24T05:15:51;2.77;;;2.50;;
11386;SDS011;5748;53.102;8.456;2023-03-24T05:18:35;2.73;;;2.50;;
11386;SDS011;5748;53.102;8.456;2023-03-24T05:21:03;2.50;;;2.30;;
11386;SDS011;5748;53.102;8.456;2023-03-24T05:23:31;2.40;;;2.23;;
11386;SDS011;5748;53.102;8.456;2023-03-24T05:25:58;2.80;;;2.60;;
11386;SDS011;5748;53.102;8.456;2023-03-24T05:28:25;2.40;;;2.20;;
11386;SDS011;5748;53.102;8.456;2023-03-24T05:30:54;2.47;;;2.27;;
11386;SDS011;5748;53.102;8.456;2023-03-24T05:33:21;2.40;;;2.20;;
11386;SDS011;5748;53.102;8.456;2023-03-24T05:35:50;2.00;;;1.90;;
11386;SDS011;5748;53.102;8.456;2023-03-24T05:38:28;2.50;;;2.10;;
11386;SDS011;5748;53.102;8.456;2023-03-24T05:40:55;2.20;;;2.00;;
11386;SDS011;5748;53.102;8.456;2023-03-24T05:43:23;2.10;;;2.00;;
11386;SDS011;5748;53.102;8.456;2023-03-24T05:45:51;2.03;;;1.77;;
11386;SDS011;5748;53.102;8.456;2023-03-24T05:48:20;1.80;;;1.70;;
11386;SDS011;5748;53.102;8.456;2023-03-24T05:50:47;1.80;;;1.70;;
11386;SDS011;5748;53.102;8.456;2023-03-24T05:53:15;1.20;;;1.10;;
11386;SDS011;5748;53.102;8.456;2023-03-24T05:55:48;1.20;;;1.10;;
11386;SDS011;5748;53.102;8.456;2023-03-24T05:58:17;1.57;;;0.83;;
11386;SDS011;5748;53.102;8.456;2023-03-24T06:00:45;0.63;;;0.60;;
11386;SDS011;5748;53.102;8.456;2023-03-24T06:03:12;0.93;;;0.90;;
11386;SDS011;5748;53.102;8.456;2023-03-24T06:05:41;1.17;;;0.90;;
11386;SDS011;5748;53.102;8.456;2023-03-24T06:08:09;1.40;;;1.07;;
11386;SDS011;5748;53.102;8.456;2023-03-24T06:10:38;1.00;;;0.80;;
11386;SDS011;5748;53.102;8.456;2023-03-24T06:13:05;0.90;;;0.80;;
11386;SDS011;5748;53.102;8.456;2023-03-24T06:15:33;1.40;;;1.00;;
11386;SDS011;5748;53.102;8.456;2023-03-24T06:18:00;0.80;;;0.70;;
11386;SDS011;5748;53.102;8.456;2023-03-24T06:20:29;0.83;;;0.80;;
11386;SDS011;5748;53.102;8.456;2023-03-24T06:22:56;1.93;;;0.90;;
11386;SDS011;5748;53.102;8.456;2023-03-24T06:25:23;1.27;;;0.80;;
11386;SDS011;5748;53.102;8.456;2023-03-24T06:27:53;1.40;;;0.90;;
11386;SDS011;5748;53.102;8.456;2023-03-24T06:30:20;2.50;;;0.90;;
11386;SDS011;5748;53.102;8.456;2023-03-24T06:32:49;1.90;;;1.20;;
11386;SDS011;5748;53.102;8.456;2023-03-24T06:35:16;0.80;;;0.70;;
11386;SDS011;5748;53.102;8.456;2023-03-24T06:37:43;1.10;;;0.80;;
11386;SDS011;5748;53.102;8.456;2023-03-24T06:40:11;1.90;;;1.10;;
11386;SDS011;5748;53.102;8.456;2023-03-24T06:42:41;1.77;;;0.80;;
11386;SDS011;5748;53.102;8.456;2023-03-24T06:45:10;0.97;;;0.87;;
11386;SDS011;5748;53.102;8.456;2023-03-24T06:47:37;1.63;;;1.20;;
11386;SDS011;5748;53.102;8.456;2023-03-24T06:50:05;1.57;;;1.10;;
11386;SDS011;5748;53.102;8.456;2023-03-24T06:52:33;2.50;;;1.33;;
11386;SDS011;5748;53.102;8.456;2023-03-24T06:55:00;1.67;;;1.13;;
11386;SDS011;5748;53.102;8.456;2023-03-24T06:57:27;1.60;;;1.07;;
11386;SDS011;5748;53.102;8.456;2023-03-24T06:59:54;1.20;;;1.10;;
11386;SDS011;5748;53.102;8.456;2023-03-24T07:02:23;1.90;;;1.23;;
11386;SDS011;5748;53.102;8.456;2023-03-24T07:04:57;2.63;;;1.07;;
11386;SDS011;5748;53.102;8.456;2023-03-24T07:07:25;1.00;;;0.90;;
11386;SDS011;5748;53.102;8.456;2023-03-24T07:10:04;2.73;;;1.37;;
11386;SDS011;5748;53.102;8.456;2023-03-24T07:12:32;1.60;;;1.10;;
11386;SDS011;5748;53.102;8.456;2023-03-24T07:15:00;1.87;;;1.30;;
11386;SDS011;5748;53.102;8.456;2023-03-24T07:17:29;2.30;;;1.10;;
11386;SDS011;5748;53.102;8.456;2023-03-24T07:19:56;1.60;;;1.20;;
11386;SDS011;5748;53.102;8.456;2023-03-24T07:22:24;2.10;;;1.30;;
11386;SDS011;5748;53.102;8.456;2023-03-24T07:24:51;2.57;;;1.20;;
11386;SDS011;5748;53.102;8.456;2023-03-24T07:27:19;2.33;;;1.40;;
11386;SDS011;5748;53.102;8.456;2023-03-24T07:29:46;2.17;;;1.20;;
11386;SDS011;5748;53.102;8.456;2023-03-24T07:32:14;1.60;;;1.00;;
11386;SDS011;5748;53.102;8.456;2023-03-24T07:34:50;3.33;;;1.40;;
11386;SDS011;5748;53.102;8.456;2023-03-24T07:37:17;2.77;;;1.20;;
11386;SDS011;5748;53.102;8.456;2023-03-24T07:39:44;2.00;;;1.17;;
11386;SDS011;5748;53.102;8.456;2023-03-24T07:42:11;2.13;;;1.10;;
11386;SDS011;5748;53.102;8.456;2023-03-24T07:44:39;2.50;;;1.10;;
11386;SDS011;5748;53.102;8.456;2023-03-24T07:47:06;2.23;;;1.10;;
11386;SDS011;5748;53.102;8.456;2023-03-24T07:49:33;1.77;;;1.00;;
11386;SDS011;5748;53.102;8.456;2023-03-24T07:52:01;2.23;;;1.20;;
11386;SDS011;5748;53.102;8.456;2023-03-24T07:54:30;3.23;;;1.43;;
11386;SDS011;5748;53.102;8.456;2023-03-24T07:56:57;1.43;;;1.10;;
11386;SDS011;5748;53.102;8.456;2023-03-24T07:59:25;2.67;;;1.47;;
11386;SDS011;5748;53.102;8.456;2023-03-24T08:01:52;2.37;;;1.37;;
11386;SDS011;5748;53.102;8.456;2023-03-24T08:04:22;1.93;;;1.13;;
11386;SDS011;5748;53.102;8.456;2023-03-24T08:07:03;2.43;;;1.13;;
11386;SDS011;5748;53.102;8.456;2023-03-24T08:09:30;1.77;;;1.20;;
11386;SDS011;5748;53.102;8.456;2023-03-24T08:11:57;2.33;;;1.30;;
11386;SDS011;5748;53.102;8.456;2023-03-24T08:14:32;1.83;;;1.20;;
11386;SDS011;5748;53.102;8.456;2023-03-24T08:16:59;2.40;;;1.40;;
11386;SDS011;5748;53.102;8.456;2023-03-24T08:19:26;3.07;;;1.37;;
11386;SDS011;5748;53.102;8.456;2023-03-24T08:22:03;2.23;;;1.13;;
11386;SDS011;5748;53.102;8.456;2023-03-24T08:24:30;2.63;;;1.23;;
11386;SDS011;5748;53.102;8.456;2023-03-24T08:27:08;1.67;;;1.00;;
11386;SDS011;5748;53.102;8.456;2023-03-24T08:29:44;2.60;;;1.30;;
11386;SDS011;5748;53.102;8.456;2023-03-24T08:32:11;2.57;;;1.43;;
11386;SDS011;5748;53.102;8.456;2023-03-24T08:34:40;1.87;;;1.10;;
11386;SDS011;5748;53.102;8.456;2023-03-24T08:37:22;3.47;;;1.30;;
11386;SDS011;5748;53.102;8.456;2023-03-24T08:39:49;2.53;;;1.37;;
11386;SDS011;5748;53.102;8.456;2023-03-24T08:42:17;2.23;;;1.30;;
11386;SDS011;5748;53.102;8.456;2023-03-24T08:44:50;2.53;;;1.33;;
11386;SDS011;5748;53.102;8.456;2023-03-24T08:47:17;1.70;;;1.10;;
11386;SDS011;5748;53.102;8.456;2023-03-24T08:49:54;1.67;;;1.20;;
11386;SDS011;5748;53.102;8.456;2023-03-24T08:52:24;2.83;;;1.10;;
11386;SDS011;5748;53.102;8.456;2023-03-24T08:54:51;2.33;;;1.40;;
11386;SDS011;5748;53.102;8.456;2023-03-24T08:57:18;4.43;;;1.20;;
11386;SDS011;5748;53.102;8.456;2023-03-24T08:59:53;4.30;;;1.50;;
11386;SDS011;5748;53.102;8.456;2023-03-24T09:02:37;1.63;;;0.97;;
11386;SDS011;5748;53.102;8.456;2023-03-24T09:05:05;3.40;;;1.17;;
11386;SDS011;5748;53.102;8.456;2023-03-24T09:07:34;3.87;;;1.13;;
11386;SDS011;5748;53.102;8.456;2023-03-24T09:10:02;2.17;;;1.00;;
11386;SDS011;5748;53.102;8.456;2023-03-24T09:12:30;3.57;;;1.40;;
11386;SDS011;5748;53.102;8.456;2023-03-24T09:14:57;2.43;;;1.10;;
11386;SDS011;5748;53.102;8.456;2023-03-24T09:17:24;1.80;;;1.10;;
11386;SDS011;5748;53.102;8.456;2023-03-24T09:19:52;2.37;;;1.13;;
11386;SDS011;5748;53.102;8.456;2023-03-24T09:22:20;3.40;;;1.43;;
11386;SDS011;5748;53.102;8.456;2023-03-24T09:24:49;2.77;;;1.43;;
11386;SDS011;5748;53.102;8.456;2023-03-24T09:27:19;2.30;;;1.20;;
11386;SDS011;5748;53.102;8.456;2023-03-24T09:29:58;2.70;;;1.33;;
11386;SDS011;5748;53.102;8.456;2023-03-24T09:32:25;2.60;;;1.30;;
11386;SDS011;5748;53.102;8.456;2023-03-24T09:34:52;1.53;;;0.87;;
11386;SDS011;5748;53.102;8.456;2023-03-24T09:37:19;1.97;;;1.20;;
11386;SDS011;5748;53.102;8.456;2023-03-24T09:39:46;3.10;;;1.40;;
11386;SDS011;5748;53.102;8.456;2023-03-24T09:42:17;2.97;;;1.80;;
11386;SDS011;5748;53.102;8.456;2023-03-24T09:44:50;4.50;;;1.67;;
11386;SDS011;5748;53.102;8.456;2023-03-24T09:47:24;3.47;;;1.50;;
11386;SDS011;5748;53.102;8.456;2023-03-24T09:49:54;2.63;;;1.10;;
11386;SDS011;5748;53.102;8.456;2023-03-24T09:52:31;4.23;;;1.53;;
11386;SDS011;5748;53.102;8.456;2023-03-24T09:55:01;2.20;;;1.40;;
11386;SDS011;5748;53.102;8.456;2023-03-24T09:57:33;2.13;;;1.30;;
11386;SDS011;5748;53.102;8.456;2023-03-24T10:02:56;3.00;;;1.53;;
11386;SDS011;5748;53.102;8.456;2023-03-24T10:05:29;5.03;;;1.43;;
11386;SDS011;5748;53.102;8.456;2023-03-24T10:08:05;1.87;;;1.17;;
11386;SDS011;5748;53.102;8.456;2023-03-24T10:10:44;3.13;;;1.20;;
11386;SDS011;5748;53.102;8.456;2023-03-24T10:13:28;2.72;;;1.40;;
11386;SDS011;5748;53.102;8.456;2023-03-24T10:16:10;2.95;;;1.33;;
11386;SDS011;5748;53.102;8.456;2023-03-24T10:18:45;2.80;;;1.27;;
11386;SDS011;5748;53.102;8.456;2023-03-24T10:21:29;3.00;;;1.60;;
11386;SDS011;5748;53.102;8.456;2023-03-24T10:24:01;3.35;;;1.48;;
11386;SDS011;5748;53.102;8.456;2023-03-24T10:26:48;2.92;;;1.50;;
11386;SDS011;5748;53.102;8.456;2023-03-24T10:29:24;3.58;;;1.30;;
11386;SDS011;5748;53.102;8.456;2023-03-24T10:32:07;4.25;;;1.50;;
11386;SDS011;5748;53.102;8.456;2023-03-24T10:34:44;3.75;;;1.50;;
11386;SDS011;5748;53.102;8.456;2023-03-24T10:37:18;3.03;;;1.52;;
11386;SDS011;5748;53.102;8.456;2023-03-24T10:39:45;2.88;;;1.20;;
11386;SDS011;5748;53.102;8.456;2023-03-24T10:42:22;4.20;;;1.60;;
11386;SDS011;5748;53.102;8.456;2023-03-24T10:44:52;3.03;;;1.20;;
11386;SDS011;5748;53.102;8.456;2023-03-24T10:47:23;2.38;;;1.20;;
11386;SDS011;5748;53.102;8.456;2023-03-24T10:49:53;1.92;;;1.20;;
11386;SDS011;5748;53.102;8.456;2023-03-24T10:52:23;3.45;;;1.15;;
11386;SDS011;5748;53.102;8.456;2023-03-24T10:54:53;1.40;;;1.05;;
11386;SDS011;5748;53.102;8.456;2023-03-24T10:57:25;3.08;;;1.30;;
11386;SDS011;5748;53.102;8.456;2023-03-24T11:00:00;2.47;;;1.27;;
11386;SDS011;5748;53.102;8.456;2023-03-24T11:02:39;4.70;;;1.73;;
11386;SDS011;5748;53.102;8.456;2023-03-24T11:05:12;4.35;;;1.85;;
11386;SDS011;5748;53.102;8.456;2023-03-24T11:07:43;3.22;;;1.30;;
11386;SDS011;5748;53.102;8.456;2023-03-24T11:10:14;2.17;;;1.30;;
11386;SDS011;5748;53.102;8.456;2023-03-24T11:12:58;2.78;;;1.33;;
11386;SDS011;5748;53.102;8.456;2023-03-24T11:18:06;4.38;;;2.00;;
11386;SDS011;5748;53.102;8.456;2023-03-24T11:20:42;2.25;;;1.30;;
11386;SDS011;5748;53.102;8.456;2023-03-24T11:25:48;2.53;;;1.20;;
11386;SDS011;5748;53.102;8.456;2023-03-24T11:28:28;2.85;;;1.40;;
11386;SDS011;5748;53.102;8.456;2023-03-24T11:31:07;3.80;;;1.63;;
11386;SDS011;5748;53.102;8.456;2023-03-24T11:33:41;2.65;;;1.35;;
11386;SDS011;5748;53.102;8.456;2023-03-24T11:39:18;1.90;;;1.00;;
11386;SDS011;5748;53.102;8.456;2023-03-24T11:41:54;2.13;;;1.00;;
11386;SDS011;5748;53.102;8.456;2023-03-24T11:44:32;2.15;;;1.00;;
11386;SDS011;5748;53.102;8.456;2023-03-24T11:47:14;1.77;;;0.90;;
11386;SDS011;5748;53.102;8.456;2023-03-24T11:50:00;1.50;;;0.90;;
11386;SDS011;5748;53.102;8.456;2023-03-24T11:52:42;1.63;;;1.08;;
11386;SDS011;5748;53.102;8.456;2023-03-24T11:55:22;1.55;;;0.90;;
11386;SDS011;5748;53.102;8.456;2023-03-24T11:58:05;1.77;;;0.80;;
11386;SDS011;5748;53.102;8.456;2023-03-24T12:00:45;2.55;;;1.20;;
11386;SDS011;5748;53.102;8.456;2023-03-24T12:03:24;2.78;;;1.00;;
11386;SDS011;5748;53.102;8.456;2023-03-24T12:06:32;2.38;;;1.30;;
11386;SDS011;5748;53.102;8.456;2023-03-24T12:09:12;3.63;;;1.50;;
11386;SDS011;5748;53.102;8.456;2023-03-24T12:11:50;1.73;;;1.10;;
11386;SDS011;5748;53.102;8.456;2023-03-24T12:14:32;2.40;;;1.15;;
11386;SDS011;5748;53.102;8.456;2023-03-24T12:17:20;2.03;;;1.00;;
11386;SDS011;5748;53.102;8.456;2023-03-24T12:22:56;2.00;;;1.00;;
11386;SDS011;5748;53.102;8.456;2023-03-24T12:25:38;2.55;;;1.13;;
11386;SDS011;5748;53.102;8.456;2023-03-24T12:28:31;1.58;;;1.00;;
11386;SDS011;5748;53.102;8.456;2023-03-24T12:31:31;2.13;;;0.98;;
11386;SDS011;5748;53.102;8.456;2023-03-24T12:37:26;2.00;;;1.10;;
11386;SDS011;5748;53.102;8.456;2023-03-24T12:40:05;3.17;;;1.40;;
11386;SDS011;5748;53.102;8.456;2023-03-24T12:43:21;2.42;;;1.40;;
11386;SDS011;5748;53.102;8.456;2023-03-24T12:46:00;1.85;;;0.98;;
11386;SDS011;5748;53.102;8.456;2023-03-24T12:51:46;2.13;;;0.82;;
11386;SDS011;5748;53.102;8.456;2023-03-24T12:54:29;2.25;;;0.95;;
11386;SDS011;5748;53.102;8.456;2023-03-24T12:57:02;1.85;;;1.10;;
11386;SDS011;5748;53.102;8.456;2023-03-24T12:59:34;2.63;;;1.20;;
11386;SDS011;5748;53.102;8.456;2023-03-24T13:02:12;1.35;;;0.95;;
11386;SDS011;5748;53.102;8.456;2023-03-24T13:04:48;1.73;;;0.85;;
11386;SDS011;5748;53.102;8.456;2023-03-24T13:07:19;2.00;;;1.08;;
11386;SDS011;5748;53.102;8.456;2023-03-24T13:10:02;1.70;;;0.80;;
11386;SDS011;5748;53.102;8.456;2023-03-24T13:12:40;2.30;;;1.00;;
11386;SDS011;5748;53.102;8.456;2023-03-24T13:15:14;3.50;;;1.13;;
11386;SDS011;5748;53.102;8.456;2023-03-24T13:17:44;2.40;;;1.10;;
11386;SDS011;5748;53.102;8.456;2023-03-24T13:20:19;2.13;;;1.05;;
11386;SDS011;5748;53.102;8.456;2023-03-24T13:23:01;2.38;;;1.08;;
11386;SDS011;5748;53.102;8.456;2023-03-24T13:25:44;3.08;;;1.02;;
11386;SDS011;5748;53.102;8.456;2023-03-24T13:28:19;2.53;;;1.15;;
11386;SDS011;5748;53.102;8.456;2023-03-24T13:30:53;2.08;;;1.00;;
11386;SDS011;5748;53.102;8.456;2023-03-24T13:33:23;4.03;;;1.38;;
11386;SDS011;5748;53.102;8.456;2023-03-24T13:35:59;1.83;;;0.82;;
11386;SDS011;5748;53.102;8.456;2023-03-24T13:38:41;2.33;;;1.10;;
11386;SDS011;5748;53.102;8.456;2023-03-24T13:41:16;1.67;;;0.90;;
11386;SDS011;5748;53.102;8.456;2023-03-24T13:43:49;2.35;;;0.90;;
11386;SDS011;5748;53.102;8.456;2023-03-24T13:46:25;2.03;;;0.93;;
11386;SDS011;5748;53.102;8.456;2023-03-24T13:48:54;2.00;;;1.10;;
11386;SDS011;5748;53.102;8.456;2023-03-24T13:51:33;1.55;;;0.93;;
11386;SDS011;5748;53.102;8.456;2023-03-24T13:54:05;1.10;;;0.80;;
11386;SDS011;5748;53.102;8.456;2023-03-24T13:56:46;2.15;;;1.08;;
11386;SDS011;5748;53.102;8.456;2023-03-24T13:59:27;2.47;;;1.00;;
11386;SDS011;5748;53.102;8.456;2023-03-24T14:05:04;1.98;;;0.90;;
11386;SDS011;5748;53.102;8.456;2023-03-24T14:07:42;1.88;;;0.90;;
11386;SDS011;5748;53.102;8.456;2023-03-24T14:19:20;2.22;;;1.00;;
11386;SDS011;5748;53.102;8.456;2023-03-24T14:22:09;2.78;;;1.17;;
11386;SDS011;5748;53.102;8.456;2023-03-24T14:24:41;2.45;;;1.10;;
11386;SDS011;5748;53.102;8.456;2023-03-24T14:30:12;2.58;;;1.08;;
11386;SDS011;5748;53.102;8.456;2023-03-24T14:32:50;3.63;;;1.50;;
11386;SDS011;5748;53.102;8.456;2023-03-24T14:35:25;2.45;;;1.05;;
11386;SDS011;5748;53.102;8.456;2023-03-24T14:38:18;1.67;;;1.00;;
11386;SDS011;5748;53.102;8.456;2023-03-24T14:40:51;2.17;;;1.05;;
11386;SDS011;5748;53.102;8.456;2023-03-24T14:43:24;1.27;;;0.90;;
11386;SDS011;5748;53.102;8.456;2023-03-24T14:45:55;2.13;;;0.90;;
11386;SDS011;5748;53.102;8.456;2023-03-24T14:48:33;1.77;;;1.10;;
11386;SDS011;5748;53.102;8.456;2023-03-24T14:51:12;3.17;;;1.30;;
11386;SDS011;5748;53.102;8.456;2023-03-24T14:54:02;1.73;;;1.13;;
11386;SDS011;5748;53.102;8.456;2023-03-24T14:56:34;1.87;;;1.07;;
11386;SDS011;5748;53.102;8.456;2023-03-24T14:59:08;1.37;;;0.90;;
11386;SDS011;5748;53.102;8.456;2023-03-24T15:01:49;1.73;;;1.00;;
11386;SDS011;5748;53.102;8.456;2023-03-24T15:04:23;1.53;;;0.93;;
11386;SDS011;5748;53.102;8.456;2023-03-24T15:06:52;2.00;;;1.20;;
11386;SDS011;5748;53.102;8.456;2023-03-24T15:09:20;2.73;;;1.30;;
11386;SDS011;5748;53.102;8.456;2023-03-24T15:11:48;1.23;;;0.80;;
11386;SDS011;5748;53.102;8.456;2023-03-24T15:17:04;1.40;;;0.80;;
11386;SDS011;5748;53.102;8.456;2023-03-24T15:19:40;2.37;;;1.00;;
11386;SDS011;5748;53.102;8.456;2023-03-24T15:22:09;2.50;;;1.00;;
11386;SDS011;5748;53.102;8.456;2023-03-24T15:24:39;2.73;;;1.10;;
11386;SDS011;5748;53.102;8.456;2023-03-24T15:27:13;1.73;;;0.90;;
11386;SDS011;5748;53.102;8.456;2023-03-24T15:29:58;1.93;;;1.30;;
11386;SDS011;5748;53.102;8.456;2023-03-24T15:32:27;1.90;;;1.03;;
11386;SDS011;5748;53.102;8.456;2023-03-24T15:34:57;1.87;;;1.20;;
11386;SDS011;5748;53.102;8.456;2023-03-24T15:37:30;1.30;;;1.00;;
11386;SDS011;5748;53.102;8.456;2023-03-24T15:40:01;1.80;;;1.20;;
11386;SDS011;5748;53.102;8.456;2023-03-24T15:42:30;1.37;;;1.03;;
11386;SDS011;5748;53.102;8.456;2023-03-24T15:45:05;2.27;;;1.03;;
11386;SDS011;5748;53.102;8.456;2023-03-24T15:47:41;1.23;;;1.03;;
11386;SDS011;5748;53.102;8.456;2023-03-24T15:53:00;1.80;;;1.17;;
11386;SDS011;5748;53.102;8.456;2023-03-24T15:55:30;2.80;;;1.30;;
11386;SDS011;5748;53.102;8.456;2023-03-24T16:00:52;1.93;;;1.43;;
11386;SDS011;5748;53.102;8.456;2023-03-24T16:06:10;2.50;;;1.50;;
11386;SDS011;5748;53.102;8.456;2023-03-24T16:08:40;2.30;;;1.20;;
11386;SDS011;5748;53.102;8.456;2023-03-24T16:11:10;2.47;;;1.17;;
11386;SDS011;5748;53.102;8.456;2023-03-24T16:13:40;1.63;;;1.30;;
11386;SDS011;5748;53.102;8.456;2023-03-24T16:16:19;2.43;;;1.33;;
11386;SDS011;5748;53.102;8.456;2023-03-24T16:18:52;1.27;;;0.93;;
11386;SDS011;5748;53.102;8.456;2023-03-24T16:21:20;1.90;;;1.33;;
11386;SDS011;5748;53.102;8.456;2023-03-24T16:23:51;2.00;;;1.13;;
11386;SDS011;5748;53.102;8.456;2023-03-24T16:26:20;2.30;;;1.10;;
11386;SDS011;5748;53.102;8.456;2023-03-24T16:28:50;2.47;;;1.10;;
11386;SDS011;5748;53.102;8.456;2023-03-24T16:31:19;1.80;;;1.13;;
11386;SDS011;5748;53.102;8.456;2023-03-24T16:33:49;2.37;;;1.40;;
11386;SDS011;5748;53.102;8.456;2023-03-24T16:36:20;1.83;;;1.30;;
11386;SDS011;5748;53.102;8.456;2023-03-24T16:38:50;2.20;;;1.40;;
11386;SDS011;5748;53.102;8.456;2023-03-24T16:41:18;1.57;;;1.23;;